createdAt,value
2019-03-08T00:03:57.822Z,2.26
2019-03-08T00:09:05.661Z,2.42
2019-03-08T00:14:13.317Z,2.55
2019-03-08T00:19:20.950Z,2.66
2019-03-08T00:24:28.616Z,2.50
2019-03-08T00:29:36.322Z,2.50
2019-03-08T00:34:43.947Z,2.84
2019-03-08T00:39:51.570Z,2.62
2019-03-08T00:44:59.354Z,2.49
2019-03-08T00:50:07.105Z,2.56
2019-03-08T00:55:14.795Z,2.57
2019-03-08T01:00:22.431Z,2.37
2019-03-08T01:05:30.538Z,2.31
2019-03-08T01:10:39.131Z,2.42
2019-03-08T01:15:46.889Z,2.17
2019-03-08T01:20:54.501Z,2.12
2019-03-08T01:26:02.487Z,2.31
2019-03-08T01:31:10.349Z,2.46
2019-03-08T01:36:17.962Z,2.32
2019-03-08T01:41:25.731Z,2.43
2019-03-08T01:46:33.782Z,2.57
2019-03-08T01:51:41.448Z,2.38
2019-03-08T01:56:49.081Z,2.36
2019-03-08T02:01:56.889Z,2.29
2019-03-08T02:07:04.462Z,2.40
2019-03-08T02:12:12.181Z,2.37
2019-03-08T02:17:19.734Z,2.55
2019-03-08T02:22:27.313Z,1.99
2019-03-08T02:27:35.102Z,1.87
2019-03-08T02:32:42.685Z,1.73
2019-03-08T02:37:50.357Z,1.53
2019-03-08T02:42:57.972Z,1.42
2019-03-08T02:48:05.723Z,1.38
2019-03-08T02:53:13.413Z,1.19
2019-03-08T02:58:21.197Z,1.44
2019-03-08T03:03:28.813Z,1.31
2019-03-08T03:08:36.641Z,1.33
2019-03-08T03:13:44.228Z,1.49
2019-03-08T03:18:51.902Z,1.29
2019-03-08T03:23:59.531Z,1.23
2019-03-08T03:29:07.261Z,1.07
2019-03-08T03:34:14.861Z,1.08
2019-03-08T03:39:22.493Z,1.19
2019-03-08T03:44:30.985Z,1.42
2019-03-08T03:49:38.845Z,1.62
2019-03-08T03:54:46.894Z,1.41
2019-03-08T03:59:54.572Z,1.20
2019-03-08T04:05:02.283Z,1.22
2019-03-08T04:10:10.137Z,1.17
2019-03-08T04:15:17.752Z,2.26
2019-03-08T04:20:25.505Z,2.81
2019-03-08T04:25:33.154Z,2.14
2019-03-08T04:30:40.863Z,1.85
2019-03-08T04:35:48.521Z,2.08
2019-03-08T04:40:56.308Z,2.19
2019-03-08T04:46:03.949Z,2.50
2019-03-08T04:51:11.789Z,2.07
2019-03-08T04:56:19.491Z,2.33
2019-03-08T05:01:27.257Z,2.30
2019-03-08T05:06:34.874Z,2.02
2019-03-08T05:11:42.694Z,2.07
2019-03-08T05:16:50.308Z,2.05
2019-03-08T05:21:58.025Z,2.10
2019-03-08T05:27:05.646Z,1.93
2019-03-08T05:32:13.478Z,2.15
2019-03-08T05:37:21.166Z,2.89
2019-03-08T05:42:28.898Z,2.83
2019-03-08T05:47:36.593Z,3.67
2019-03-08T05:52:44.247Z,3.40
2019-03-08T05:57:51.838Z,4.23
2019-03-08T06:02:59.605Z,4.57
2019-03-08T06:08:07.215Z,4.87
2019-03-08T06:13:15.003Z,4.32
2019-03-08T06:18:22.622Z,4.94
2019-03-08T06:23:30.481Z,4.21
2019-03-08T06:28:38.389Z,4.88
2019-03-08T06:33:46.109Z,4.31
2019-03-08T06:38:53.849Z,4.74
2019-03-08T06:44:01.596Z,4.45
2019-03-08T06:49:09.297Z,4.83
2019-03-08T06:54:17.034Z,4.97
2019-03-08T06:59:24.661Z,4.95
2019-03-08T07:04:32.346Z,4.79
2019-03-08T07:09:40.041Z,4.96
2019-03-08T07:14:47.737Z,4.53
2019-03-08T07:19:55.420Z,3.99
2019-03-08T07:25:03.121Z,4.29
2019-03-08T07:30:10.815Z,4.22
2019-03-08T07:35:18.522Z,3.86
2019-03-08T07:40:26.104Z,4.31
2019-03-08T07:45:33.825Z,3.73
2019-03-08T07:50:41.489Z,3.72
2019-03-08T07:55:49.257Z,3.37
2019-03-08T08:00:56.901Z,2.90
2019-03-08T08:06:05.556Z,3.21
2019-03-08T08:11:13.156Z,3.19
2019-03-08T08:16:20.872Z,3.25
2019-03-08T08:21:28.661Z,3.35
2019-03-08T08:26:36.382Z,3.41
2019-03-08T08:31:43.969Z,3.04
2019-03-08T08:36:51.666Z,2.93
2019-03-08T08:41:59.315Z,2.81
2019-03-08T08:47:06.985Z,2.83
2019-03-08T08:52:14.639Z,2.82
2019-03-08T08:57:22.198Z,2.89
2019-03-08T09:02:29.901Z,2.98
2019-03-08T09:07:37.601Z,2.83
2019-03-08T09:12:45.265Z,2.80
2019-03-08T09:17:53.030Z,3.00
2019-03-08T09:23:00.605Z,2.96
2019-03-08T09:28:08.345Z,3.12
2019-03-08T09:33:15.931Z,3.06
2019-03-08T09:38:23.636Z,3.34
2019-03-08T09:43:31.221Z,3.23
2019-03-08T09:48:38.976Z,3.00
2019-03-08T09:53:46.109Z,2.96
2019-03-08T09:58:53.902Z,2.95
2019-03-08T10:04:01.593Z,2.86
2019-03-08T10:09:09.257Z,3.19
2019-03-08T10:14:16.924Z,2.55
2019-03-08T10:19:24.689Z,2.63
2019-03-08T10:24:32.365Z,2.29
2019-03-08T10:29:40.046Z,2.58
2019-03-08T10:34:47.634Z,2.84
2019-03-08T10:39:55.369Z,3.09
2019-03-08T10:45:02.987Z,2.90
2019-03-08T10:50:10.745Z,3.16
2019-03-08T10:55:18.350Z,3.00
2019-03-08T11:00:26.058Z,2.90
2019-03-08T11:05:33.730Z,2.70
2019-03-08T11:10:41.359Z,3.39
2019-03-08T11:15:49.098Z,2.74
2019-03-08T11:20:56.764Z,3.01
2019-03-08T11:26:04.477Z,2.97
2019-03-08T11:31:12.166Z,2.90
2019-03-08T11:36:19.906Z,2.95
2019-03-08T11:41:28.629Z,3.08
2019-03-08T11:46:36.357Z,3.19
2019-03-08T11:51:44.137Z,3.05
2019-03-08T11:56:56.119Z,2.91
2019-03-08T12:01:59.969Z,2.96
2019-03-08T12:07:07.668Z,3.17
2019-03-08T12:12:16.106Z,3.18
2019-03-08T12:17:23.814Z,2.74
2019-03-08T12:22:31.531Z,3.01
2019-03-08T12:27:39.097Z,2.88
2019-03-08T12:32:46.822Z,2.85
2019-03-08T12:37:54.529Z,3.32
2019-03-08T12:43:07.994Z,3.53
2019-03-08T12:48:09.353Z,2.93
2019-03-08T12:53:24.535Z,2.62
2019-03-08T12:58:21.697Z,2.52
2019-03-08T13:03:29.425Z,2.57
2019-03-08T13:08:37.161Z,3.70
2019-03-08T13:13:44.856Z,2.53
2019-03-08T13:18:52.505Z,3.12
2019-03-08T13:24:00.128Z,3.47
2019-03-08T13:29:08.121Z,2.91
2019-03-08T13:34:15.745Z,2.84
2019-03-08T13:39:23.470Z,2.78
2019-03-08T13:44:31.149Z,3.35
2019-03-08T13:49:38.989Z,2.96
2019-03-08T13:54:46.618Z,2.62
2019-03-08T13:59:54.342Z,2.85
2019-03-08T14:05:02.037Z,2.58
2019-03-08T14:10:09.997Z,2.75
2019-03-08T14:15:17.616Z,2.78
2019-03-08T14:20:26.148Z,2.74
2019-03-08T14:25:33.894Z,2.45
2019-03-08T14:30:42.521Z,2.28
2019-03-08T14:35:50.209Z,2.19
2019-03-08T14:40:59.017Z,2.69
2019-03-08T14:46:05.112Z,2.17
2019-03-08T14:51:13.148Z,2.39
2019-03-08T14:56:20.474Z,2.71
2019-03-08T15:01:28.291Z,2.43
2019-03-08T15:06:36.707Z,2.60
2019-03-08T15:11:44.431Z,2.41
2019-03-08T15:16:52.017Z,2.47
2019-03-08T15:21:59.718Z,2.90
2019-03-08T15:27:07.370Z,2.74
2019-03-08T15:32:15.013Z,2.63
2019-03-08T15:37:22.744Z,2.26
2019-03-08T15:42:30.456Z,3.02
2019-03-08T15:47:38.122Z,2.51
2019-03-08T15:52:45.837Z,2.51
2019-03-08T15:57:53.532Z,2.22
2019-03-08T16:03:01.487Z,2.58
2019-03-08T16:08:09.184Z,2.38
2019-03-08T16:13:16.906Z,2.34
2019-03-08T16:18:24.529Z,2.26
2019-03-08T16:23:32.098Z,2.25
2019-03-08T16:28:39.694Z,2.89
2019-03-08T16:33:47.370Z,2.59
2019-03-08T16:38:55.141Z,2.69
2019-03-08T16:44:03.024Z,3.06
2019-03-08T16:49:10.669Z,2.96
2019-03-08T16:54:18.405Z,3.08
2019-03-08T16:59:25.990Z,2.65
2019-03-08T17:04:33.729Z,2.77
2019-03-08T17:09:42.797Z,2.62
2019-03-08T17:14:48.721Z,2.48
2019-03-08T17:19:56.369Z,2.30
2019-03-08T17:25:04.086Z,2.15
2019-03-08T17:30:11.657Z,2.35
2019-03-08T17:35:19.357Z,2.58
2019-03-08T17:40:28.053Z,2.37
2019-03-08T17:45:34.313Z,2.23
2019-03-08T17:50:41.989Z,2.65
2019-03-08T17:55:51.412Z,3.46
2019-03-08T18:00:56.755Z,2.47
2019-03-08T18:06:04.425Z,2.48
2019-03-08T18:11:12.038Z,2.43
2019-03-08T18:16:19.689Z,2.42
2019-03-08T18:21:27.329Z,2.30
2019-03-08T18:26:36.658Z,2.36
2019-03-08T18:31:42.442Z,2.31
2019-03-08T18:36:50.127Z,2.25
2019-03-08T18:41:57.905Z,2.45
2019-03-08T18:47:05.952Z,2.52
2019-03-08T18:52:13.671Z,2.53
2019-03-08T18:57:21.483Z,2.47
2019-03-08T19:02:29.098Z,2.88
2019-03-08T19:07:37.022Z,2.44
2019-03-08T19:12:45.613Z,2.57
2019-03-08T19:17:53.209Z,2.51
2019-03-08T19:23:00.818Z,2.84
2019-03-08T19:28:08.422Z,2.82
2019-03-08T19:33:16.137Z,3.06
2019-03-08T19:38:23.749Z,2.81
2019-03-08T19:43:31.454Z,3.44
2019-03-08T19:48:39.196Z,2.81
2019-03-08T19:53:46.862Z,2.79
2019-03-08T19:58:54.522Z,3.11
2019-03-08T20:04:02.186Z,3.27
2019-03-08T20:09:09.857Z,3.27
2019-03-08T20:14:17.495Z,2.89
2019-03-08T20:19:25.733Z,3.08
2019-03-08T20:24:33.854Z,3.05
2019-03-08T20:29:40.802Z,2.75
2019-03-08T20:34:48.694Z,3.32
2019-03-08T20:39:57.124Z,3.14
2019-03-08T20:45:05.253Z,3.40
2019-03-08T20:50:13.343Z,3.39
2019-03-08T20:55:21.444Z,3.29
2019-03-08T21:00:29.118Z,3.93
2019-03-08T21:05:36.806Z,3.17
2019-03-08T21:10:44.569Z,3.44
2019-03-08T21:15:52.372Z,3.03
2019-03-08T21:21:00.152Z,3.54
2019-03-08T21:26:08.034Z,3.02
2019-03-08T21:31:15.653Z,3.44
2019-03-08T21:36:23.350Z,3.06
2019-03-08T21:41:31.021Z,3.20
2019-03-08T21:46:38.734Z,3.57
2019-03-08T21:51:46.339Z,3.31
2019-03-08T21:56:54.093Z,3.38
2019-03-08T22:02:01.822Z,3.00
2019-03-08T22:07:09.533Z,2.95
2019-03-08T22:12:17.146Z,3.36
2019-03-08T22:17:24.777Z,3.08
2019-03-08T22:22:32.443Z,3.01
2019-03-08T22:27:40.044Z,2.91
2019-03-08T22:32:47.872Z,3.21
2019-03-08T22:37:55.630Z,3.40
2019-03-08T22:43:03.377Z,4.19
2019-03-08T22:48:11.058Z,4.04
2019-03-08T22:53:18.826Z,5.02
2019-03-08T22:58:26.431Z,5.13
2019-03-08T23:03:34.021Z,5.56
2019-03-08T23:08:41.650Z,6.14
2019-03-08T23:13:49.309Z,6.48
2019-03-08T23:18:57.065Z,6.72
2019-03-08T23:24:04.853Z,6.64
2019-03-08T23:29:12.474Z,7.54
2019-03-08T23:34:20.147Z,7.01
2019-03-08T23:39:27.825Z,6.99
2019-03-08T23:44:35.518Z,7.10
2019-03-08T23:49:43.286Z,6.85
2019-03-08T23:54:50.931Z,6.40
2019-03-08T23:59:59.684Z,5.35
